sensor_id;sensor_type;location;lat;lon;timestamp;P1;durP1;ratioP1;P2;durP2;ratioP2
74320;SDS011;62738;45.772;4.804;2022-11-15T00:00:55;9.32;;;5.70;;
74320;SDS011;62738;45.772;4.804;2022-11-15T00:03:23;7.82;;;5.53;;
74320;SDS011;62738;45.772;4.804;2022-11-15T00:05:51;11.32;;;6.18;;
74320;SDS011;62738;45.772;4.804;2022-11-15T00:08:17;8.98;;;6.00;;
74320;SDS011;62738;45.772;4.804;2022-11-15T00:10:55;9.77;;;6.70;;
74320;SDS011;62738;45.772;4.804;2022-11-15T00:15:49;8.40;;;5.10;;
74320;SDS011;62738;45.772;4.804;2022-11-15T00:18:15;7.55;;;4.32;;
74320;SDS011;62738;45.772;4.804;2022-11-15T00:20:43;6.85;;;4.60;;
74320;SDS011;62738;45.772;4.804;2022-11-15T00:23:09;5.68;;;4.22;;
74320;SDS011;62738;45.772;4.804;2022-11-15T00:25:36;5.80;;;3.40;;
74320;SDS011;62738;45.772;4.804;2022-11-15T00:28:03;5.68;;;3.90;;
74320;SDS011;62738;45.772;4.804;2022-11-15T00:30:29;6.90;;;3.20;;
74320;SDS011;62738;45.772;4.804;2022-11-15T00:32:56;5.10;;;3.33;;
74320;SDS011;62738;45.772;4.804;2022-11-15T00:35:27;4.75;;;3.20;;
74320;SDS011;62738;45.772;4.804;2022-11-15T00:37:53;5.78;;;3.70;;
74320;SDS011;62738;45.772;4.804;2022-11-15T00:40:20;4.70;;;3.20;;
74320;SDS011;62738;45.772;4.804;2022-11-15T00:42:46;4.97;;;3.03;;
74320;SDS011;62738;45.772;4.804;2022-11-15T00:45:13;6.63;;;3.70;;
74320;SDS011;62738;45.772;4.804;2022-11-15T00:47:39;6.05;;;3.38;;
74320;SDS011;62738;45.772;4.804;2022-11-15T00:50:06;5.30;;;3.70;;
74320;SDS011;62738;45.772;4.804;2022-11-15T00:52:39;7.22;;;3.88;;
74320;SDS011;62738;45.772;4.804;2022-11-15T00:55:05;5.65;;;3.85;;
74320;SDS011;62738;45.772;4.804;2022-11-15T00:57:32;5.38;;;3.88;;
74320;SDS011;62738;45.772;4.804;2022-11-15T00:59:59;6.72;;;3.90;;
74320;SDS011;62738;45.772;4.804;2022-11-15T01:02:25;4.60;;;3.72;;
74320;SDS011;62738;45.772;4.804;2022-11-15T01:04:52;5.28;;;3.85;;
74320;SDS011;62738;45.772;4.804;2022-11-15T01:07:18;5.65;;;3.45;;
74320;SDS011;62738;45.772;4.804;2022-11-15T01:09:45;6.90;;;3.85;;
74320;SDS011;62738;45.772;4.804;2022-11-15T01:12:11;6.65;;;3.90;;
74320;SDS011;62738;45.772;4.804;2022-11-15T01:14:38;6.47;;;4.03;;
74320;SDS011;62738;45.772;4.804;2022-11-15T01:17:04;6.68;;;3.80;;
74320;SDS011;62738;45.772;4.804;2022-11-15T01:19:31;6.80;;;4.10;;
74320;SDS011;62738;45.772;4.804;2022-11-15T01:21:57;8.05;;;4.10;;
74320;SDS011;62738;45.772;4.804;2022-11-15T01:24:24;6.25;;;4.07;;
74320;SDS011;62738;45.772;4.804;2022-11-15T01:26:51;8.43;;;4.43;;
74320;SDS011;62738;45.772;4.804;2022-11-15T01:29:17;6.55;;;4.03;;
74320;SDS011;62738;45.772;4.804;2022-11-15T01:31:44;6.03;;;4.40;;
74320;SDS011;62738;45.772;4.804;2022-11-15T01:34:10;5.43;;;4.00;;
74320;SDS011;62738;45.772;4.804;2022-11-15T01:36:37;6.03;;;4.22;;
74320;SDS011;62738;45.772;4.804;2022-11-15T01:39:03;7.55;;;4.90;;
74320;SDS011;62738;45.772;4.804;2022-11-15T01:41:31;8.18;;;4.80;;
74320;SDS011;62738;45.772;4.804;2022-11-15T01:47:04;6.78;;;4.32;;
74320;SDS011;62738;45.772;4.804;2022-11-15T01:52:23;6.70;;;4.80;;
74320;SDS011;62738;45.772;4.804;2022-11-15T01:54:54;6.55;;;3.90;;
74320;SDS011;62738;45.772;4.804;2022-11-15T01:57:27;6.35;;;4.28;;
74320;SDS011;62738;45.772;4.804;2022-11-15T01:59:54;8.00;;;4.40;;
74320;SDS011;62738;45.772;4.804;2022-11-15T02:02:21;6.05;;;4.25;;
74320;SDS011;62738;45.772;4.804;2022-11-15T02:04:48;9.10;;;4.85;;
74320;SDS011;62738;45.772;4.804;2022-11-15T02:07:16;8.65;;;4.65;;
74320;SDS011;62738;45.772;4.804;2022-11-15T02:09:44;6.57;;;4.43;;
74320;SDS011;62738;45.772;4.804;2022-11-15T02:12:13;6.28;;;4.30;;
74320;SDS011;62738;45.772;4.804;2022-11-15T02:17:15;8.10;;;4.45;;
74320;SDS011;62738;45.772;4.804;2022-11-15T02:25:37;7.20;;;4.82;;
74320;SDS011;62738;45.772;4.804;2022-11-15T02:28:21;7.15;;;4.32;;
74320;SDS011;62738;45.772;4.804;2022-11-15T02:31:13;7.20;;;4.70;;
74320;SDS011;62738;45.772;4.804;2022-11-15T02:34:05;6.25;;;4.05;;
74320;SDS011;62738;45.772;4.804;2022-11-15T02:41:48;6.47;;;3.95;;
74320;SDS011;62738;45.772;4.804;2022-11-15T02:46:59;6.18;;;4.03;;
74320;SDS011;62738;45.772;4.804;2022-11-15T02:49:44;5.82;;;3.90;;
74320;SDS011;62738;45.772;4.804;2022-11-15T02:52:17;4.95;;;3.83;;
74320;SDS011;62738;45.772;4.804;2022-11-15T03:00:09;5.70;;;3.65;;
74320;SDS011;62738;45.772;4.804;2022-11-15T03:10:53;7.15;;;3.92;;
74320;SDS011;62738;45.772;4.804;2022-11-15T03:17:01;5.88;;;4.15;;
74320;SDS011;62738;45.772;4.804;2022-11-15T03:22:11;5.93;;;4.28;;
74320;SDS011;62738;45.772;4.804;2022-11-15T03:24:43;6.45;;;4.45;;
74320;SDS011;62738;45.772;4.804;2022-11-15T03:27:15;5.95;;;4.38;;
74320;SDS011;62738;45.772;4.804;2022-11-15T03:29:47;6.60;;;4.53;;
74320;SDS011;62738;45.772;4.804;2022-11-15T03:32:20;8.98;;;4.93;;
74320;SDS011;62738;45.772;4.804;2022-11-15T03:34:55;8.18;;;4.38;;
74320;SDS011;62738;45.772;4.804;2022-11-15T03:37:29;6.63;;;4.80;;
74320;SDS011;62738;45.772;4.804;2022-11-15T03:40:00;7.10;;;4.38;;
74320;SDS011;62738;45.772;4.804;2022-11-15T03:42:31;7.78;;;4.80;;
74320;SDS011;62738;45.772;4.804;2022-11-15T03:45:15;6.90;;;4.55;;
74320;SDS011;62738;45.772;4.804;2022-11-15T03:47:46;7.47;;;4.80;;
74320;SDS011;62738;45.772;4.804;2022-11-15T03:50:18;7.43;;;4.57;;
74320;SDS011;62738;45.772;4.804;2022-11-15T03:52:47;6.22;;;4.60;;
74320;SDS011;62738;45.772;4.804;2022-11-15T03:55:17;7.45;;;5.03;;
74320;SDS011;62738;45.772;4.804;2022-11-15T03:57:46;7.35;;;5.07;;
74320;SDS011;62738;45.772;4.804;2022-11-15T04:00:15;7.68;;;5.22;;
74320;SDS011;62738;45.772;4.804;2022-11-15T04:02:42;8.60;;;4.95;;
74320;SDS011;62738;45.772;4.804;2022-11-15T04:05:09;7.82;;;5.30;;
74320;SDS011;62738;45.772;4.804;2022-11-15T04:07:35;6.65;;;4.60;;
74320;SDS011;62738;45.772;4.804;2022-11-15T04:10:03;8.00;;;5.10;;
74320;SDS011;62738;45.772;4.804;2022-11-15T04:12:30;6.90;;;4.93;;
74320;SDS011;62738;45.772;4.804;2022-11-15T04:15:04;7.63;;;5.35;;
74320;SDS011;62738;45.772;4.804;2022-11-15T04:17:44;6.88;;;5.30;;
74320;SDS011;62738;45.772;4.804;2022-11-15T04:20:19;5.85;;;4.63;;
74320;SDS011;62738;45.772;4.804;2022-11-15T04:23:09;7.22;;;5.25;;
74320;SDS011;62738;45.772;4.804;2022-11-15T04:25:58;8.45;;;5.47;;
74320;SDS011;62738;45.772;4.804;2022-11-15T04:28:27;6.78;;;5.07;;
74320;SDS011;62738;45.772;4.804;2022-11-15T04:30:53;10.70;;;5.18;;
74320;SDS011;62738;45.772;4.804;2022-11-15T04:33:21;7.32;;;5.43;;
74320;SDS011;62738;45.772;4.804;2022-11-15T04:35:48;7.95;;;5.65;;
74320;SDS011;62738;45.772;4.804;2022-11-15T04:38:34;7.82;;;5.43;;
74320;SDS011;62738;45.772;4.804;2022-11-15T04:41:01;7.53;;;5.10;;
74320;SDS011;62738;45.772;4.804;2022-11-15T04:43:29;7.88;;;5.32;;
74320;SDS011;62738;45.772;4.804;2022-11-15T04:45:56;9.43;;;5.72;;
74320;SDS011;62738;45.772;4.804;2022-11-15T04:48:22;7.95;;;5.70;;
74320;SDS011;62738;45.772;4.804;2022-11-15T04:50:49;8.65;;;5.65;;
74320;SDS011;62738;45.772;4.804;2022-11-15T04:53:16;8.73;;;5.30;;
74320;SDS011;62738;45.772;4.804;2022-11-15T04:55:45;8.93;;;6.40;;
74320;SDS011;62738;45.772;4.804;2022-11-15T04:58:12;11.13;;;5.88;;
74320;SDS011;62738;45.772;4.804;2022-11-15T05:00:39;8.27;;;6.30;;
74320;SDS011;62738;45.772;4.804;2022-11-15T05:03:06;7.50;;;5.55;;
74320;SDS011;62738;45.772;4.804;2022-11-15T05:05:51;8.50;;;6.30;;
74320;SDS011;62738;45.772;4.804;2022-11-15T05:08:17;9.50;;;6.50;;
74320;SDS011;62738;45.772;4.804;2022-11-15T05:10:44;9.13;;;6.38;;
74320;SDS011;62738;45.772;4.804;2022-11-15T05:13:11;9.65;;;6.38;;
74320;SDS011;62738;45.772;4.804;2022-11-15T05:15:37;10.88;;;6.38;;
74320;SDS011;62738;45.772;4.804;2022-11-15T05:18:04;8.90;;;6.22;;
74320;SDS011;62738;45.772;4.804;2022-11-15T05:20:30;8.90;;;6.18;;
74320;SDS011;62738;45.772;4.804;2022-11-15T05:22:57;9.73;;;6.45;;
74320;SDS011;62738;45.772;4.804;2022-11-15T05:25:24;13.07;;;6.07;;
74320;SDS011;62738;45.772;4.804;2022-11-15T05:27:51;9.10;;;6.28;;
74320;SDS011;62738;45.772;4.804;2022-11-15T05:30:18;10.00;;;6.38;;
74320;SDS011;62738;45.772;4.804;2022-11-15T05:32:44;11.25;;;6.95;;
74320;SDS011;62738;45.772;4.804;2022-11-15T05:35:20;10.20;;;7.25;;
74320;SDS011;62738;45.772;4.804;2022-11-15T05:37:57;8.75;;;5.90;;
74320;SDS011;62738;45.772;4.804;2022-11-15T05:40:24;9.43;;;6.85;;
74320;SDS011;62738;45.772;4.804;2022-11-15T05:42:51;8.27;;;5.95;;
74320;SDS011;62738;45.772;4.804;2022-11-15T05:45:18;9.13;;;6.22;;
74320;SDS011;62738;45.772;4.804;2022-11-15T05:47:52;9.15;;;6.25;;
74320;SDS011;62738;45.772;4.804;2022-11-15T05:50:20;10.38;;;5.97;;
74320;SDS011;62738;45.772;4.804;2022-11-15T05:52:47;11.00;;;5.50;;
74320;SDS011;62738;45.772;4.804;2022-11-15T05:55:13;8.23;;;6.10;;
74320;SDS011;62738;45.772;4.804;2022-11-15T05:57:41;9.45;;;6.50;;
74320;SDS011;62738;45.772;4.804;2022-11-15T06:00:07;9.10;;;5.88;;
74320;SDS011;62738;45.772;4.804;2022-11-15T06:02:35;8.95;;;5.57;;
74320;SDS011;62738;45.772;4.804;2022-11-15T06:05:02;9.43;;;5.95;;
74320;SDS011;62738;45.772;4.804;2022-11-15T06:07:29;7.20;;;5.75;;
74320;SDS011;62738;45.772;4.804;2022-11-15T06:09:57;11.68;;;6.65;;
74320;SDS011;62738;45.772;4.804;2022-11-15T06:12:23;9.10;;;5.50;;
74320;SDS011;62738;45.772;4.804;2022-11-15T06:14:50;8.20;;;5.57;;
74320;SDS011;62738;45.772;4.804;2022-11-15T06:17:16;7.90;;;5.72;;
74320;SDS011;62738;45.772;4.804;2022-11-15T06:19:43;7.30;;;5.03;;
74320;SDS011;62738;45.772;4.804;2022-11-15T06:22:09;13.32;;;6.28;;
74320;SDS011;62738;45.772;4.804;2022-11-15T06:24:36;7.82;;;4.65;;
74320;SDS011;62738;45.772;4.804;2022-11-15T06:27:02;9.65;;;5.32;;
74320;SDS011;62738;45.772;4.804;2022-11-15T06:29:29;8.13;;;5.47;;
74320;SDS011;62738;45.772;4.804;2022-11-15T06:31:55;7.30;;;5.03;;
74320;SDS011;62738;45.772;4.804;2022-11-15T06:34:22;11.65;;;6.22;;
74320;SDS011;62738;45.772;4.804;2022-11-15T06:36:48;8.82;;;6.05;;
74320;SDS011;62738;45.772;4.804;2022-11-15T06:39:15;10.50;;;5.22;;
74320;SDS011;62738;45.772;4.804;2022-11-15T06:41:42;8.10;;;5.38;;
74320;SDS011;62738;45.772;4.804;2022-11-15T06:44:08;7.88;;;5.72;;
74320;SDS011;62738;45.772;4.804;2022-11-15T06:46:35;7.78;;;5.35;;
74320;SDS011;62738;45.772;4.804;2022-11-15T06:49:01;8.38;;;5.35;;
74320;SDS011;62738;45.772;4.804;2022-11-15T06:51:34;9.70;;;5.53;;
74320;SDS011;62738;45.772;4.804;2022-11-15T06:54:01;8.75;;;5.75;;
74320;SDS011;62738;45.772;4.804;2022-11-15T06:56:28;6.72;;;5.10;;
74320;SDS011;62738;45.772;4.804;2022-11-15T06:58:54;6.18;;;4.43;;
74320;SDS011;62738;45.772;4.804;2022-11-15T07:01:21;8.18;;;5.47;;
74320;SDS011;62738;45.772;4.804;2022-11-15T07:03:48;10.10;;;5.50;;
74320;SDS011;62738;45.772;4.804;2022-11-15T07:06:14;7.53;;;5.45;;
74320;SDS011;62738;45.772;4.804;2022-11-15T07:08:41;7.95;;;5.85;;
74320;SDS011;62738;45.772;4.804;2022-11-15T07:11:08;7.65;;;5.20;;
74320;SDS011;62738;45.772;4.804;2022-11-15T07:13:35;8.90;;;5.43;;
74320;SDS011;62738;45.772;4.804;2022-11-15T07:16:07;8.43;;;5.05;;
74320;SDS011;62738;45.772;4.804;2022-11-15T07:18:35;8.75;;;5.43;;
74320;SDS011;62738;45.772;4.804;2022-11-15T07:21:03;6.45;;;4.90;;
74320;SDS011;62738;45.772;4.804;2022-11-15T07:23:31;6.40;;;4.85;;
74320;SDS011;62738;45.772;4.804;2022-11-15T07:25:59;9.13;;;5.75;;
74320;SDS011;62738;45.772;4.804;2022-11-15T07:28:26;6.82;;;4.70;;
74320;SDS011;62738;45.772;4.804;2022-11-15T07:30:53;9.13;;;5.22;;
74320;SDS011;62738;45.772;4.804;2022-11-15T07:33:20;9.30;;;5.20;;
74320;SDS011;62738;45.772;4.804;2022-11-15T07:35:47;7.68;;;5.13;;
74320;SDS011;62738;45.772;4.804;2022-11-15T07:38:17;8.55;;;4.13;;
74320;SDS011;62738;45.772;4.804;2022-11-15T07:40:46;6.93;;;4.10;;
74320;SDS011;62738;45.772;4.804;2022-11-15T07:43:13;6.10;;;3.85;;
74320;SDS011;62738;45.772;4.804;2022-11-15T07:45:44;6.45;;;4.85;;
74320;SDS011;62738;45.772;4.804;2022-11-15T07:48:11;5.93;;;3.97;;
74320;SDS011;62738;45.772;4.804;2022-11-15T07:50:41;5.82;;;4.15;;
74320;SDS011;62738;45.772;4.804;2022-11-15T07:53:09;10.82;;;4.20;;
74320;SDS011;62738;45.772;4.804;2022-11-15T07:55:36;7.28;;;4.43;;
74320;SDS011;62738;45.772;4.804;2022-11-15T07:58:04;6.70;;;4.35;;
74320;SDS011;62738;45.772;4.804;2022-11-15T08:00:32;7.50;;;4.15;;
74320;SDS011;62738;45.772;4.804;2022-11-15T08:03:03;8.65;;;4.57;;
74320;SDS011;62738;45.772;4.804;2022-11-15T08:05:31;6.78;;;3.95;;
74320;SDS011;62738;45.772;4.804;2022-11-15T08:07:59;7.88;;;4.85;;
74320;SDS011;62738;45.772;4.804;2022-11-15T08:10:26;10.40;;;5.68;;
74320;SDS011;62738;45.772;4.804;2022-11-15T08:12:59;11.23;;;5.40;;
74320;SDS011;62738;45.772;4.804;2022-11-15T08:15:28;8.73;;;5.00;;
74320;SDS011;62738;45.772;4.804;2022-11-15T08:17:56;6.68;;;4.25;;
74320;SDS011;62738;45.772;4.804;2022-11-15T08:20:24;8.60;;;5.20;;
74320;SDS011;62738;45.772;4.804;2022-11-15T08:22:52;6.35;;;4.43;;
74320;SDS011;62738;45.772;4.804;2022-11-15T08:25:19;7.30;;;4.72;;
74320;SDS011;62738;45.772;4.804;2022-11-15T08:27:45;6.82;;;4.68;;
74320;SDS011;62738;45.772;4.804;2022-11-15T08:30:12;9.50;;;5.13;;
74320;SDS011;62738;45.772;4.804;2022-11-15T08:32:39;8.13;;;5.18;;
74320;SDS011;62738;45.772;4.804;2022-11-15T08:35:06;8.10;;;4.93;;
74320;SDS011;62738;45.772;4.804;2022-11-15T08:37:33;5.60;;;4.20;;
74320;SDS011;62738;45.772;4.804;2022-11-15T08:40:00;8.10;;;4.70;;
74320;SDS011;62738;45.772;4.804;2022-11-15T08:42:26;8.07;;;4.93;;
74320;SDS011;62738;45.772;4.804;2022-11-15T08:44:53;8.68;;;4.70;;
74320;SDS011;62738;45.772;4.804;2022-11-15T08:47:20;6.00;;;4.40;;
74320;SDS011;62738;45.772;4.804;2022-11-15T08:49:46;6.45;;;4.07;;
74320;SDS011;62738;45.772;4.804;2022-11-15T08:52:13;8.43;;;4.28;;
74320;SDS011;62738;45.772;4.804;2022-11-15T08:54:40;8.63;;;4.30;;
74320;SDS011;62738;45.772;4.804;2022-11-15T08:57:07;6.13;;;3.83;;
74320;SDS011;62738;45.772;4.804;2022-11-15T08:59:35;5.03;;;3.80;;
74320;SDS011;62738;45.772;4.804;2022-11-15T09:02:03;7.93;;;4.05;;
74320;SDS011;62738;45.772;4.804;2022-11-15T09:04:30;4.70;;;3.83;;
74320;SDS011;62738;45.772;4.804;2022-11-15T09:06:57;6.80;;;3.80;;
74320;SDS011;62738;45.772;4.804;2022-11-15T09:09:24;7.07;;;3.90;;
74320;SDS011;62738;45.772;4.804;2022-11-15T09:11:50;5.05;;;3.40;;
74320;SDS011;62738;45.772;4.804;2022-11-15T09:14:17;6.35;;;3.65;;
74320;SDS011;62738;45.772;4.804;2022-11-15T09:16:44;5.45;;;3.50;;
74320;SDS011;62738;45.772;4.804;2022-11-15T09:19:10;5.00;;;3.50;;
74320;SDS011;62738;45.772;4.804;2022-11-15T09:21:37;5.50;;;3.80;;
74320;SDS011;62738;45.772;4.804;2022-11-15T09:24:04;8.75;;;4.07;;
74320;SDS011;62738;45.772;4.804;2022-11-15T09:26:30;6.93;;;3.97;;
74320;SDS011;62738;45.772;4.804;2022-11-15T09:28:57;9.07;;;3.47;;
74320;SDS011;62738;45.772;4.804;2022-11-15T09:31:24;14.88;;;3.28;;
74320;SDS011;62738;45.772;4.804;2022-11-15T09:33:50;5.88;;;3.30;;
74320;SDS011;62738;45.772;4.804;2022-11-15T09:36:18;6.45;;;3.50;;
74320;SDS011;62738;45.772;4.804;2022-11-15T09:38:44;5.60;;;3.22;;
74320;SDS011;62738;45.772;4.804;2022-11-15T09:49:01;4.50;;;3.40;;
74320;SDS011;62738;45.772;4.804;2022-11-15T09:53:57;7.22;;;3.35;;
74320;SDS011;62738;45.772;4.804;2022-11-15T09:56:48;6.22;;;3.17;;
74320;SDS011;62738;45.772;4.804;2022-11-15T10:04:25;6.38;;;3.13;;
74320;SDS011;62738;45.772;4.804;2022-11-15T10:06:54;6.00;;;3.10;;
74320;SDS011;62738;45.772;4.804;2022-11-15T10:09:52;4.93;;;2.60;;
74320;SDS011;62738;45.772;4.804;2022-11-15T10:12:23;8.75;;;3.03;;
74320;SDS011;62738;45.772;4.804;2022-11-15T10:14:55;6.00;;;2.63;;
74320;SDS011;62738;45.772;4.804;2022-11-15T10:22:51;5.53;;;2.80;;
74320;SDS011;62738;45.772;4.804;2022-11-15T10:30:45;4.57;;;2.08;;
74320;SDS011;62738;45.772;4.804;2022-11-15T10:35:47;4.00;;;2.15;;
74320;SDS011;62738;45.772;4.804;2022-11-15T10:38:13;4.47;;;2.63;;
74320;SDS011;62738;45.772;4.804;2022-11-15T10:40:40;3.92;;;2.30;;
74320;SDS011;62738;45.772;4.804;2022-11-15T10:45:44;5.00;;;2.70;;
74320;SDS011;62738;45.772;4.804;2022-11-15T10:50:39;4.57;;;2.53;;
74320;SDS011;62738;45.772;4.804;2022-11-15T10:53:12;5.78;;;2.75;;
74320;SDS011;62738;45.772;4.804;2022-11-15T10:55:46;4.00;;;2.45;;
74320;SDS011;62738;45.772;4.804;2022-11-15T11:03:41;5.53;;;3.13;;
74320;SDS011;62738;45.772;4.804;2022-11-15T11:06:14;4.68;;;2.63;;
74320;SDS011;62738;45.772;4.804;2022-11-15T11:11:46;7.22;;;3.03;;
74320;SDS011;62738;45.772;4.804;2022-11-15T11:14:20;5.25;;;2.92;;
74320;SDS011;62738;45.772;4.804;2022-11-15T11:17:36;6.47;;;2.90;;
74320;SDS011;62738;45.772;4.804;2022-11-15T11:25:40;4.80;;;2.38;;
74320;SDS011;62738;45.772;4.804;2022-11-15T11:31:06;7.13;;;2.60;;
74320;SDS011;62738;45.772;4.804;2022-11-15T11:34:03;6.55;;;2.70;;
74320;SDS011;62738;45.772;4.804;2022-11-15T11:42:48;7.10;;;2.85;;
74320;SDS011;62738;45.772;4.804;2022-11-15T11:50:47;6.25;;;3.08;;
74320;SDS011;62738;45.772;4.804;2022-11-15T11:55:53;8.23;;;2.75;;
74320;SDS011;62738;45.772;4.804;2022-11-15T11:58:33;6.00;;;2.72;;
74320;SDS011;62738;45.772;4.804;2022-11-15T12:01:15;6.63;;;2.42;;
74320;SDS011;62738;45.772;4.804;2022-11-15T12:04:01;7.03;;;2.97;;
74320;SDS011;62738;45.772;4.804;2022-11-15T12:06:46;5.72;;;3.15;;
74320;SDS011;62738;45.772;4.804;2022-11-15T12:12:06;5.15;;;2.33;;
74320;SDS011;62738;45.772;4.804;2022-11-15T12:17:26;5.40;;;2.53;;
74320;SDS011;62738;45.772;4.804;2022-11-15T12:20:06;3.83;;;2.70;;
74320;SDS011;62738;45.772;4.804;2022-11-15T12:22:43;5.38;;;2.83;;
74320;SDS011;62738;45.772;4.804;2022-11-15T12:25:18;5.50;;;2.58;;
74320;SDS011;62738;45.772;4.804;2022-11-15T12:30:31;4.22;;;2.30;;
74320;SDS011;62738;45.772;4.804;2022-11-15T12:33:28;7.22;;;2.95;;
74320;SDS011;62738;45.772;4.804;2022-11-15T12:35:59;6.00;;;2.47;;
74320;SDS011;62738;45.772;4.804;2022-11-15T12:41:23;4.22;;;2.05;;
74320;SDS011;62738;45.772;4.804;2022-11-15T12:43:51;9.15;;;2.70;;
74320;SDS011;62738;45.772;4.804;2022-11-15T12:48:50;7.68;;;2.70;;
74320;SDS011;62738;45.772;4.804;2022-11-15T12:57:35;7.35;;;3.08;;
74320;SDS011;62738;45.772;4.804;2022-11-15T13:02:32;7.15;;;3.03;;
74320;SDS011;62738;45.772;4.804;2022-11-15T13:20:49;6.53;;;2.25;;
74320;SDS011;62738;45.772;4.804;2022-11-15T13:23:16;6.03;;;2.38;;
74320;SDS011;62738;45.772;4.804;2022-11-15T13:25:48;6.97;;;2.65;;
74320;SDS011;62738;45.772;4.804;2022-11-15T13:28:21;4.00;;;2.30;;
74320;SDS011;62738;45.772;4.804;2022-11-15T13:30:55;3.13;;;2.20;;
74320;SDS011;62738;45.772;4.804;2022-11-15T13:33:25;6.70;;;3.53;;
74320;SDS011;62738;45.772;4.804;2022-11-15T13:35:58;4.78;;;2.30;;
74320;SDS011;62738;45.772;4.804;2022-11-15T13:38:32;8.73;;;2.42;;
74320;SDS011;62738;45.772;4.804;2022-11-15T13:41:13;5.20;;;2.50;;
74320;SDS011;62738;45.772;4.804;2022-11-15T13:43:43;6.05;;;2.97;;
74320;SDS011;62738;45.772;4.804;2022-11-15T13:48:40;5.72;;;2.67;;
74320;SDS011;62738;45.772;4.804;2022-11-15T13:53:58;6.38;;;2.85;;
74320;SDS011;62738;45.772;4.804;2022-11-15T13:56:26;4.00;;;2.60;;
74320;SDS011;62738;45.772;4.804;2022-11-15T13:58:55;5.57;;;3.10;;
74320;SDS011;62738;45.772;4.804;2022-11-15T14:01:22;8.02;;;2.83;;
74320;SDS011;62738;45.772;4.804;2022-11-15T14:03:54;6.63;;;2.95;;
74320;SDS011;62738;45.772;4.804;2022-11-15T14:06:25;6.80;;;3.40;;
74320;SDS011;62738;45.772;4.804;2022-11-15T14:11:51;6.65;;;2.97;;
74320;SDS011;62738;45.772;4.804;2022-11-15T14:14:23;5.45;;;2.85;;
74320;SDS011;62738;45.772;4.804;2022-11-15T14:16:52;4.40;;;2.60;;
74320;SDS011;62738;45.772;4.804;2022-11-15T14:24:36;9.25;;;2.85;;
74320;SDS011;62738;45.772;4.804;2022-11-15T14:29:42;6.68;;;2.53;;
74320;SDS011;62738;45.772;4.804;2022-11-15T14:32:13;4.40;;;2.90;;
74320;SDS011;62738;45.772;4.804;2022-11-15T14:34:42;7.03;;;2.83;;
74320;SDS011;62738;45.772;4.804;2022-11-15T14:37:28;6.75;;;3.00;;
74320;SDS011;62738;45.772;4.804;2022-11-15T14:40:01;6.40;;;2.90;;
74320;SDS011;62738;45.772;4.804;2022-11-15T14:42:30;5.75;;;3.00;;
74320;SDS011;62738;45.772;4.804;2022-11-15T14:44:56;11.77;;;3.35;;
74320;SDS011;62738;45.772;4.804;2022-11-15T14:47:23;7.32;;;3.53;;
74320;SDS011;62738;45.772;4.804;2022-11-15T14:49:50;7.32;;;3.72;;
74320;SDS011;62738;45.772;4.804;2022-11-15T14:52:30;9.20;;;3.70;;
74320;SDS011;62738;45.772;4.804;2022-11-15T14:55:03;5.57;;;3.22;;
74320;SDS011;62738;45.772;4.804;2022-11-15T14:57:37;5.57;;;3.20;;
74320;SDS011;62738;45.772;4.804;2022-11-15T15:00:04;6.13;;;3.30;;
74320;SDS011;62738;45.772;4.804;2022-11-15T15:02:32;6.07;;;2.88;;
74320;SDS011;62738;45.772;4.804;2022-11-15T15:04:58;7.72;;;2.80;;
74320;SDS011;62738;45.772;4.804;2022-11-15T15:07:27;7.85;;;3.30;;
74320;SDS011;62738;45.772;4.804;2022-11-15T15:09:54;6.85;;;2.92;;
74320;SDS011;62738;45.772;4.804;2022-11-15T15:12:40;4.43;;;3.13;;
74320;SDS011;62738;45.772;4.804;2022-11-15T15:15:27;5.75;;;2.78;;
74320;SDS011;62738;45.772;4.804;2022-11-15T15:17:58;7.03;;;3.13;;
74320;SDS011;62738;45.772;4.804;2022-11-15T15:20:25;5.75;;;2.97;;
74320;SDS011;62738;45.772;4.804;2022-11-15T15:22:52;5.22;;;2.85;;
74320;SDS011;62738;45.772;4.804;2022-11-15T15:25:32;5.63;;;2.65;;
74320;SDS011;62738;45.772;4.804;2022-11-15T15:28:01;5.10;;;2.70;;
74320;SDS011;62738;45.772;4.804;2022-11-15T15:30:29;5.03;;;2.60;;
74320;SDS011;62738;45.772;4.804;2022-11-15T15:32:56;5.38;;;2.90;;
74320;SDS011;62738;45.772;4.804;2022-11-15T15:35:23;4.25;;;2.42;;
74320;SDS011;62738;45.772;4.804;2022-11-15T15:37:52;6.32;;;2.80;;
74320;SDS011;62738;45.772;4.804;2022-11-15T15:40:21;5.75;;;2.67;;
74320;SDS011;62738;45.772;4.804;2022-11-15T15:42:49;4.00;;;2.50;;
74320;SDS011;62738;45.772;4.804;2022-11-15T15:45:16;5.43;;;2.58;;
74320;SDS011;62738;45.772;4.804;2022-11-15T15:47:45;8.05;;;2.78;;
74320;SDS011;62738;45.772;4.804;2022-11-15T15:50:25;4.22;;;2.50;;
74320;SDS011;62738;45.772;4.804;2022-11-15T15:52:59;3.40;;;2.42;;
74320;SDS011;62738;45.772;4.804;2022-11-15T15:55:27;4.45;;;2.40;;
74320;SDS011;62738;45.772;4.804;2022-11-15T15:57:54;5.75;;;2.58;;
74320;SDS011;62738;45.772;4.804;2022-11-15T16:00:21;5.97;;;2.33;;
74320;SDS011;62738;45.772;4.804;2022-11-15T16:02:51;6.72;;;3.00;;
74320;SDS011;62738;45.772;4.804;2022-11-15T16:05:18;3.97;;;2.40;;
74320;SDS011;62738;45.772;4.804;2022-11-15T16:07:45;5.82;;;2.75;;
74320;SDS011;62738;45.772;4.804;2022-11-15T16:12:53;4.57;;;2.78;;
74320;SDS011;62738;45.772;4.804;2022-11-15T16:15:21;4.95;;;2.85;;
74320;SDS011;62738;45.772;4.804;2022-11-15T16:17:53;6.60;;;3.13;;
74320;SDS011;62738;45.772;4.804;2022-11-15T16:23:09;5.47;;;3.10;;
74320;SDS011;62738;45.772;4.804;2022-11-15T16:28:25;5.93;;;3.17;;
74320;SDS011;62738;45.772;4.804;2022-11-15T16:31:04;4.45;;;2.63;;
74320;SDS011;62738;45.772;4.804;2022-11-15T16:33:35;5.63;;;2.50;;
74320;SDS011;62738;45.772;4.804;2022-11-15T16:36:03;4.15;;;2.60;;
74320;SDS011;62738;45.772;4.804;2022-11-15T16:38:31;5.03;;;3.05;;
74320;SDS011;62738;45.772;4.804;2022-11-15T16:40:58;6.72;;;2.53;;
74320;SDS011;62738;45.772;4.804;2022-11-15T16:43:25;5.30;;;2.42;;
74320;SDS011;62738;45.772;4.804;2022-11-15T16:45:51;4.75;;;2.10;;
74320;SDS011;62738;45.772;4.804;2022-11-15T16:48:21;6.13;;;2.60;;
74320;SDS011;62738;45.772;4.804;2022-11-15T16:50:49;4.25;;;2.90;;
74320;SDS011;62738;45.772;4.804;2022-11-15T16:53:16;3.63;;;2.70;;
74320;SDS011;62738;45.772;4.804;2022-11-15T16:55:43;6.00;;;3.15;;
74320;SDS011;62738;45.772;4.804;2022-11-15T16:58:09;6.93;;;2.92;;
74320;SDS011;62738;45.772;4.804;2022-11-15T17:00:36;4.75;;;3.08;;
74320;SDS011;62738;45.772;4.804;2022-11-15T17:03:04;4.47;;;2.70;;
74320;SDS011;62738;45.772;4.804;2022-11-15T17:05:31;6.15;;;2.50;;
74320;SDS011;62738;45.772;4.804;2022-11-15T17:07:57;5.32;;;2.80;;
74320;SDS011;62738;45.772;4.804;2022-11-15T17:10:24;5.90;;;2.50;;
74320;SDS011;62738;45.772;4.804;2022-11-15T17:12:52;5.70;;;2.75;;
74320;SDS011;62738;45.772;4.804;2022-11-15T17:15:20;7.18;;;2.58;;
74320;SDS011;62738;45.772;4.804;2022-11-15T17:17:50;4.57;;;2.72;;
74320;SDS011;62738;45.772;4.804;2022-11-15T17:20:19;5.93;;;2.72;;
74320;SDS011;62738;45.772;4.804;2022-11-15T17:22:47;4.95;;;2.97;;
74320;SDS011;62738;45.772;4.804;2022-11-15T17:25:14;8.13;;;3.00;;
74320;SDS011;62738;45.772;4.804;2022-11-15T17:27:40;6.57;;;2.80;;
74320;SDS011;62738;45.772;4.804;2022-11-15T17:30:08;4.60;;;2.80;;
74320;SDS011;62738;45.772;4.804;2022-11-15T17:32:37;7.20;;;2.65;;
74320;SDS011;62738;45.772;4.804;2022-11-15T17:35:04;5.65;;;2.95;;
74320;SDS011;62738;45.772;4.804;2022-11-15T17:37:40;5.38;;;2.72;;
74320;SDS011;62738;45.772;4.804;2022-11-15T17:40:07;9.18;;;3.20;;
74320;SDS011;62738;45.772;4.804;2022-11-15T17:42:34;6.55;;;2.85;;
74320;SDS011;62738;45.772;4.804;2022-11-15T17:45:00;8.43;;;3.13;;
74320;SDS011;62738;45.772;4.804;2022-11-15T17:47:34;6.65;;;2.90;;
74320;SDS011;62738;45.772;4.804;2022-11-15T17:50:01;7.30;;;3.20;;
74320;SDS011;62738;45.772;4.804;2022-11-15T17:52:27;5.60;;;3.00;;
74320;SDS011;62738;45.772;4.804;2022-11-15T17:54:54;4.88;;;3.10;;